Terminal Aerodrome Forecast
Issued by NWS

Home | Current Version | Previous Version | Text Only | Print | Product List | Glossary On
Versions: 1 2 3 4 5 6 7 8 9 10 11 12 13
133
FTUS44 KBMX 252339
TAFTOI
TAF
KTOI 252339Z 2600/2624 08002KT P6SM FEW040 FEW080
     FM261500 10004KT P6SM FEW070 FEW120
     FM262100 19004KT P6SM SCT040 SCT100=

USA.gov is the U.S. government's official web portal to all federal, state and local government web resources and services.